sensor_id;sensor_type;location;lat;lon;timestamp;P1;durP1;ratioP1;P2;durP2;ratioP2
71570;SDS011;59407;42.682;23.322;2022-10-12T00:01:12;28.45;;;17.23;;
71570;SDS011;59407;42.682;23.322;2022-10-12T00:03:37;31.77;;;17.60;;
71570;SDS011;59407;42.682;23.322;2022-10-12T00:06:09;31.87;;;18.83;;
71570;SDS011;59407;42.682;23.322;2022-10-12T00:08:37;32.90;;;16.70;;
71570;SDS011;59407;42.682;23.322;2022-10-12T00:11:04;33.83;;;16.65;;
71570;SDS011;59407;42.682;23.322;2022-10-12T00:13:30;33.15;;;17.90;;
71570;SDS011;59407;42.682;23.322;2022-10-12T00:15:56;30.67;;;17.20;;
71570;SDS011;59407;42.682;23.322;2022-10-12T00:18:26;35.90;;;17.83;;
71570;SDS011;59407;42.682;23.322;2022-10-12T00:20:59;33.53;;;18.27;;
71570;SDS011;59407;42.682;23.322;2022-10-12T00:23:31;27.75;;;16.70;;
71570;SDS011;59407;42.682;23.322;2022-10-12T00:26:04;31.23;;;16.50;;
71570;SDS011;59407;42.682;23.322;2022-10-12T00:28:34;31.83;;;16.50;;
71570;SDS011;59407;42.682;23.322;2022-10-12T00:31:00;31.73;;;16.70;;
71570;SDS011;59407;42.682;23.322;2022-10-12T00:33:26;31.60;;;16.55;;
71570;SDS011;59407;42.682;23.322;2022-10-12T00:35:52;32.35;;;16.42;;
71570;SDS011;59407;42.682;23.322;2022-10-12T00:38:19;31.80;;;16.40;;
71570;SDS011;59407;42.682;23.322;2022-10-12T00:40:45;29.48;;;17.23;;
71570;SDS011;59407;42.682;23.322;2022-10-12T00:43:31;33.03;;;18.00;;
71570;SDS011;59407;42.682;23.322;2022-10-12T00:46:00;30.38;;;15.70;;
71570;SDS011;59407;42.682;23.322;2022-10-12T00:48:27;33.72;;;16.60;;
71570;SDS011;59407;42.682;23.322;2022-10-12T00:50:53;28.37;;;16.77;;
71570;SDS011;59407;42.682;23.322;2022-10-12T00:53:22;29.20;;;16.42;;
71570;SDS011;59407;42.682;23.322;2022-10-12T00:55:52;32.17;;;17.33;;
71570;SDS011;59407;42.682;23.322;2022-10-12T00:58:19;32.20;;;16.43;;
71570;SDS011;59407;42.682;23.322;2022-10-12T01:00:45;30.63;;;16.10;;
71570;SDS011;59407;42.682;23.322;2022-10-12T01:03:12;29.10;;;15.63;;
71570;SDS011;59407;42.682;23.322;2022-10-12T01:05:39;29.98;;;16.23;;
71570;SDS011;59407;42.682;23.322;2022-10-12T01:08:05;28.95;;;16.65;;
71570;SDS011;59407;42.682;23.322;2022-10-12T01:10:31;31.40;;;16.43;;
71570;SDS011;59407;42.682;23.322;2022-10-12T01:12:56;32.03;;;16.00;;
71570;SDS011;59407;42.682;23.322;2022-10-12T01:15:22;29.58;;;17.02;;
71570;SDS011;59407;42.682;23.322;2022-10-12T01:20:58;31.20;;;16.77;;
71570;SDS011;59407;42.682;23.322;2022-10-12T01:34:01;28.27;;;16.42;;
71570;SDS011;59407;42.682;23.322;2022-10-12T01:36:59;28.70;;;16.13;;
71570;SDS011;59407;42.682;23.322;2022-10-12T01:39:36;27.95;;;15.93;;
71570;SDS011;59407;42.682;23.322;2022-10-12T01:42:06;30.25;;;16.13;;
71570;SDS011;59407;42.682;23.322;2022-10-12T01:44:34;30.55;;;16.63;;
71570;SDS011;59407;42.682;23.322;2022-10-12T01:47:00;28.73;;;15.80;;
71570;SDS011;59407;42.682;23.322;2022-10-12T01:49:32;31.13;;;17.35;;
71570;SDS011;59407;42.682;23.322;2022-10-12T02:07:51;33.53;;;16.30;;
71570;SDS011;59407;42.682;23.322;2022-10-12T02:10:20;30.38;;;16.02;;
71570;SDS011;59407;42.682;23.322;2022-10-12T02:12:48;28.85;;;16.10;;
71570;SDS011;59407;42.682;23.322;2022-10-12T02:15:14;32.87;;;16.43;;
71570;SDS011;59407;42.682;23.322;2022-10-12T02:17:41;27.55;;;16.20;;
71570;SDS011;59407;42.682;23.322;2022-10-12T02:20:09;30.08;;;15.13;;
71570;SDS011;59407;42.682;23.322;2022-10-12T02:22:37;31.15;;;16.75;;
71570;SDS011;59407;42.682;23.322;2022-10-12T02:25:05;30.87;;;16.87;;
71570;SDS011;59407;42.682;23.322;2022-10-12T02:27:35;30.88;;;18.23;;
71570;SDS011;59407;42.682;23.322;2022-10-12T02:30:02;29.98;;;18.05;;
71570;SDS011;59407;42.682;23.322;2022-10-12T02:32:38;38.38;;;19.67;;
71570;SDS011;59407;42.682;23.322;2022-10-12T02:35:15;34.53;;;18.20;;
71570;SDS011;59407;42.682;23.322;2022-10-12T02:37:51;35.35;;;19.42;;
71570;SDS011;59407;42.682;23.322;2022-10-12T02:43:26;35.30;;;19.80;;
71570;SDS011;59407;42.682;23.322;2022-10-12T02:45:55;36.40;;;19.25;;
71570;SDS011;59407;42.682;23.322;2022-10-12T02:48:23;37.87;;;19.53;;
71570;SDS011;59407;42.682;23.322;2022-10-12T02:50:50;33.83;;;20.05;;
71570;SDS011;59407;42.682;23.322;2022-10-12T02:53:18;37.28;;;19.33;;
71570;SDS011;59407;42.682;23.322;2022-10-12T02:55:51;38.72;;;21.42;;
71570;SDS011;59407;42.682;23.322;2022-10-12T02:58:18;36.35;;;19.63;;
71570;SDS011;59407;42.682;23.322;2022-10-12T03:00:44;38.60;;;20.43;;
71570;SDS011;59407;42.682;23.322;2022-10-12T03:03:10;37.83;;;20.85;;
71570;SDS011;59407;42.682;23.322;2022-10-12T03:05:36;37.85;;;19.95;;
71570;SDS011;59407;42.682;23.322;2022-10-12T03:08:01;39.87;;;21.10;;
71570;SDS011;59407;42.682;23.322;2022-10-12T03:10:27;37.43;;;19.83;;
71570;SDS011;59407;42.682;23.322;2022-10-12T03:12:52;39.13;;;20.63;;
71570;SDS011;59407;42.682;23.322;2022-10-12T03:15:18;39.70;;;21.20;;
71570;SDS011;59407;42.682;23.322;2022-10-12T03:17:43;39.13;;;20.03;;
71570;SDS011;59407;42.682;23.322;2022-10-12T03:20:09;37.43;;;19.83;;
71570;SDS011;59407;42.682;23.322;2022-10-12T03:22:34;39.53;;;20.80;;
71570;SDS011;59407;42.682;23.322;2022-10-12T03:25:00;39.03;;;20.30;;
71570;SDS011;59407;42.682;23.322;2022-10-12T03:27:25;39.03;;;20.60;;
71570;SDS011;59407;42.682;23.322;2022-10-12T03:29:51;43.20;;;21.38;;
71570;SDS011;59407;42.682;23.322;2022-10-12T03:32:16;34.80;;;19.43;;
71570;SDS011;59407;42.682;23.322;2022-10-12T03:34:42;43.47;;;21.90;;
71570;SDS011;59407;42.682;23.322;2022-10-12T03:37:07;44.30;;;23.45;;
71570;SDS011;59407;42.682;23.322;2022-10-12T03:39:33;40.10;;;20.97;;
71570;SDS011;59407;42.682;23.322;2022-10-12T03:41:58;45.03;;;21.97;;
71570;SDS011;59407;42.682;23.322;2022-10-12T03:44:23;40.77;;;21.37;;
71570;SDS011;59407;42.682;23.322;2022-10-12T03:46:49;39.33;;;20.93;;
71570;SDS011;59407;42.682;23.322;2022-10-12T03:49:14;42.67;;;21.03;;
71570;SDS011;59407;42.682;23.322;2022-10-12T03:51:39;38.70;;;21.53;;
71570;SDS011;59407;42.682;23.322;2022-10-12T03:54:05;43.70;;;24.27;;
71570;SDS011;59407;42.682;23.322;2022-10-12T03:56:30;43.10;;;21.37;;
71570;SDS011;59407;42.682;23.322;2022-10-12T03:58:56;38.57;;;20.53;;
71570;SDS011;59407;42.682;23.322;2022-10-12T04:01:21;40.83;;;21.43;;
71570;SDS011;59407;42.682;23.322;2022-10-12T04:03:46;45.00;;;21.92;;
71570;SDS011;59407;42.682;23.322;2022-10-12T04:06:12;40.17;;;21.13;;
71570;SDS011;59407;42.682;23.322;2022-10-12T04:08:37;37.40;;;21.60;;
71570;SDS011;59407;42.682;23.322;2022-10-12T04:11:02;42.57;;;21.30;;
71570;SDS011;59407;42.682;23.322;2022-10-12T04:13:28;39.70;;;20.10;;
71570;SDS011;59407;42.682;23.322;2022-10-12T04:15:53;42.40;;;22.50;;
71570;SDS011;59407;42.682;23.322;2022-10-12T04:18:19;40.87;;;21.43;;
71570;SDS011;59407;42.682;23.322;2022-10-12T04:20:48;39.37;;;20.13;;
71570;SDS011;59407;42.682;23.322;2022-10-12T04:23:13;41.95;;;20.77;;
71570;SDS011;59407;42.682;23.322;2022-10-12T04:25:39;40.05;;;20.42;;
71570;SDS011;59407;42.682;23.322;2022-10-12T04:28:04;41.97;;;20.93;;
71570;SDS011;59407;42.682;23.322;2022-10-12T04:30:29;41.80;;;21.20;;
71570;SDS011;59407;42.682;23.322;2022-10-12T04:32:57;37.30;;;20.33;;
71570;SDS011;59407;42.682;23.322;2022-10-12T04:35:22;36.70;;;19.73;;
71570;SDS011;59407;42.682;23.322;2022-10-12T04:37:48;35.77;;;18.10;;
71570;SDS011;59407;42.682;23.322;2022-10-12T04:40:13;34.88;;;18.75;;
71570;SDS011;59407;42.682;23.322;2022-10-12T04:42:38;29.53;;;16.83;;
71570;SDS011;59407;42.682;23.322;2022-10-12T04:45:04;32.63;;;17.23;;
71570;SDS011;59407;42.682;23.322;2022-10-12T04:47:29;30.88;;;16.42;;
71570;SDS011;59407;42.682;23.322;2022-10-12T04:49:55;30.77;;;17.07;;
71570;SDS011;59407;42.682;23.322;2022-10-12T04:52:20;31.37;;;16.27;;
71570;SDS011;59407;42.682;23.322;2022-10-12T04:54:46;28.93;;;17.70;;
71570;SDS011;59407;42.682;23.322;2022-10-12T04:57:11;27.88;;;14.88;;
71570;SDS011;59407;42.682;23.322;2022-10-12T04:59:36;28.07;;;15.70;;
71570;SDS011;59407;42.682;23.322;2022-10-12T05:02:02;28.83;;;16.23;;
71570;SDS011;59407;42.682;23.322;2022-10-12T05:04:27;27.30;;;14.80;;
71570;SDS011;59407;42.682;23.322;2022-10-12T05:06:52;29.80;;;15.93;;
71570;SDS011;59407;42.682;23.322;2022-10-12T05:09:18;30.42;;;17.38;;
71570;SDS011;59407;42.682;23.322;2022-10-12T05:11:44;33.83;;;16.20;;
71570;SDS011;59407;42.682;23.322;2022-10-12T05:14:09;28.07;;;16.37;;
71570;SDS011;59407;42.682;23.322;2022-10-12T05:16:35;30.90;;;16.30;;
71570;SDS011;59407;42.682;23.322;2022-10-12T05:19:00;32.58;;;16.00;;
71570;SDS011;59407;42.682;23.322;2022-10-12T05:21:25;26.03;;;15.93;;
71570;SDS011;59407;42.682;23.322;2022-10-12T05:23:51;31.00;;;19.67;;
71570;SDS011;59407;42.682;23.322;2022-10-12T05:26:17;26.48;;;15.55;;
71570;SDS011;59407;42.682;23.322;2022-10-12T05:28:42;28.30;;;16.07;;
71570;SDS011;59407;42.682;23.322;2022-10-12T05:31:08;26.42;;;16.00;;
71570;SDS011;59407;42.682;23.322;2022-10-12T05:33:33;31.23;;;15.40;;
71570;SDS011;59407;42.682;23.322;2022-10-12T05:35:59;27.60;;;15.93;;
71570;SDS011;59407;42.682;23.322;2022-10-12T05:38:24;31.53;;;16.90;;
71570;SDS011;59407;42.682;23.322;2022-10-12T05:40:49;27.90;;;15.37;;
71570;SDS011;59407;42.682;23.322;2022-10-12T05:43:15;36.00;;;20.13;;
71570;SDS011;59407;42.682;23.322;2022-10-12T05:45:41;26.00;;;16.13;;
71570;SDS011;59407;42.682;23.322;2022-10-12T05:48:06;32.28;;;16.42;;
71570;SDS011;59407;42.682;23.322;2022-10-12T05:50:32;28.60;;;15.60;;
71570;SDS011;59407;42.682;23.322;2022-10-12T05:52:57;25.80;;;15.23;;
71570;SDS011;59407;42.682;23.322;2022-10-12T05:55:22;27.93;;;15.47;;
71570;SDS011;59407;42.682;23.322;2022-10-12T05:57:48;30.93;;;16.00;;
71570;SDS011;59407;42.682;23.322;2022-10-12T06:00:14;23.45;;;13.50;;
71570;SDS011;59407;42.682;23.322;2022-10-12T06:02:39;26.57;;;14.63;;
71570;SDS011;59407;42.682;23.322;2022-10-12T06:05:05;29.70;;;13.60;;
71570;SDS011;59407;42.682;23.322;2022-10-12T06:07:30;25.67;;;15.23;;
71570;SDS011;59407;42.682;23.322;2022-10-12T06:09:56;26.83;;;16.27;;
71570;SDS011;59407;42.682;23.322;2022-10-12T06:12:21;25.73;;;15.50;;
71570;SDS011;59407;42.682;23.322;2022-10-12T06:14:51;25.92;;;14.82;;
71570;SDS011;59407;42.682;23.322;2022-10-12T06:17:16;33.05;;;18.60;;
71570;SDS011;59407;42.682;23.322;2022-10-12T06:19:42;27.20;;;15.27;;
71570;SDS011;59407;42.682;23.322;2022-10-12T06:22:07;26.95;;;14.00;;
71570;SDS011;59407;42.682;23.322;2022-10-12T06:24:33;24.67;;;13.90;;
71570;SDS011;59407;42.682;23.322;2022-10-12T06:26:58;26.57;;;14.60;;
71570;SDS011;59407;42.682;23.322;2022-10-12T06:29:23;29.57;;;15.60;;
71570;SDS011;59407;42.682;23.322;2022-10-12T06:31:49;30.00;;;15.73;;
71570;SDS011;59407;42.682;23.322;2022-10-12T06:34:16;34.15;;;18.83;;
71570;SDS011;59407;42.682;23.322;2022-10-12T06:36:42;33.10;;;18.42;;
71570;SDS011;59407;42.682;23.322;2022-10-12T06:39:10;28.77;;;16.50;;
71570;SDS011;59407;42.682;23.322;2022-10-12T06:41:36;26.15;;;15.55;;
71570;SDS011;59407;42.682;23.322;2022-10-12T06:44:03;34.60;;;15.80;;
71570;SDS011;59407;42.682;23.322;2022-10-12T06:46:28;25.42;;;13.55;;
71570;SDS011;59407;42.682;23.322;2022-10-12T06:48:54;25.23;;;14.63;;
71570;SDS011;59407;42.682;23.322;2022-10-12T06:51:19;25.23;;;14.77;;
71570;SDS011;59407;42.682;23.322;2022-10-12T06:53:45;32.47;;;17.43;;
71570;SDS011;59407;42.682;23.322;2022-10-12T06:56:10;28.03;;;16.47;;
71570;SDS011;59407;42.682;23.322;2022-10-12T06:58:36;27.13;;;15.17;;
71570;SDS011;59407;42.682;23.322;2022-10-12T07:01:02;32.80;;;18.10;;
71570;SDS011;59407;42.682;23.322;2022-10-12T07:03:28;31.65;;;17.10;;
71570;SDS011;59407;42.682;23.322;2022-10-12T07:05:53;29.00;;;17.03;;
71570;SDS011;59407;42.682;23.322;2022-10-12T07:08:19;33.03;;;16.60;;
71570;SDS011;59407;42.682;23.322;2022-10-12T07:10:44;32.63;;;16.60;;
71570;SDS011;59407;42.682;23.322;2022-10-12T07:13:09;32.25;;;16.77;;
71570;SDS011;59407;42.682;23.322;2022-10-12T07:15:35;28.87;;;16.23;;
71570;SDS011;59407;42.682;23.322;2022-10-12T07:18:00;29.83;;;16.37;;
71570;SDS011;59407;42.682;23.322;2022-10-12T07:20:26;29.87;;;16.77;;
71570;SDS011;59407;42.682;23.322;2022-10-12T07:22:51;29.90;;;17.10;;
71570;SDS011;59407;42.682;23.322;2022-10-12T07:25:17;28.90;;;16.33;;
71570;SDS011;59407;42.682;23.322;2022-10-12T07:27:45;29.83;;;16.10;;
71570;SDS011;59407;42.682;23.322;2022-10-12T07:30:11;31.15;;;15.80;;
71570;SDS011;59407;42.682;23.322;2022-10-12T07:32:37;30.80;;;17.10;;
71570;SDS011;59407;42.682;23.322;2022-10-12T07:35:02;28.27;;;16.10;;
71570;SDS011;59407;42.682;23.322;2022-10-12T07:37:28;30.10;;;16.27;;
71570;SDS011;59407;42.682;23.322;2022-10-12T07:39:53;31.75;;;17.10;;
71570;SDS011;59407;42.682;23.322;2022-10-12T07:42:21;34.57;;;16.60;;
71570;SDS011;59407;42.682;23.322;2022-10-12T07:44:47;29.25;;;16.08;;
71570;SDS011;59407;42.682;23.322;2022-10-12T07:47:13;29.87;;;15.83;;
71570;SDS011;59407;42.682;23.322;2022-10-12T07:49:40;29.60;;;16.13;;
71570;SDS011;59407;42.682;23.322;2022-10-12T07:52:05;34.17;;;16.17;;
71570;SDS011;59407;42.682;23.322;2022-10-12T07:54:31;30.10;;;15.70;;
71570;SDS011;59407;42.682;23.322;2022-10-12T07:56:56;28.13;;;16.17;;
71570;SDS011;59407;42.682;23.322;2022-10-12T07:59:22;30.50;;;15.23;;
71570;SDS011;59407;42.682;23.322;2022-10-12T08:01:48;26.48;;;15.45;;
71570;SDS011;59407;42.682;23.322;2022-10-12T08:04:13;23.60;;;14.97;;
71570;SDS011;59407;42.682;23.322;2022-10-12T08:06:40;28.67;;;15.25;;
71570;SDS011;59407;42.682;23.322;2022-10-12T08:09:07;36.73;;;19.23;;
71570;SDS011;59407;42.682;23.322;2022-10-12T08:11:36;35.20;;;19.95;;
71570;SDS011;59407;42.682;23.322;2022-10-12T08:14:03;27.65;;;14.57;;
71570;SDS011;59407;42.682;23.322;2022-10-12T08:16:28;23.00;;;14.10;;
71570;SDS011;59407;42.682;23.322;2022-10-12T08:18:54;25.03;;;13.00;;
71570;SDS011;59407;42.682;23.322;2022-10-12T08:21:19;24.02;;;12.85;;
71570;SDS011;59407;42.682;23.322;2022-10-12T08:23:45;26.87;;;14.53;;
71570;SDS011;59407;42.682;23.322;2022-10-12T08:26:11;24.67;;;14.27;;
71570;SDS011;59407;42.682;23.322;2022-10-12T08:28:38;27.13;;;13.50;;
71570;SDS011;59407;42.682;23.322;2022-10-12T08:31:07;28.55;;;14.02;;
71570;SDS011;59407;42.682;23.322;2022-10-12T08:33:33;20.77;;;12.80;;
71570;SDS011;59407;42.682;23.322;2022-10-12T08:36:03;21.40;;;11.80;;
71570;SDS011;59407;42.682;23.322;2022-10-12T08:38:29;19.85;;;12.05;;
71570;SDS011;59407;42.682;23.322;2022-10-12T08:40:59;24.27;;;12.70;;
71570;SDS011;59407;42.682;23.322;2022-10-12T08:46:04;23.08;;;11.20;;
71570;SDS011;59407;42.682;23.322;2022-10-12T08:48:45;22.53;;;12.87;;
71570;SDS011;59407;42.682;23.322;2022-10-12T08:51:25;19.27;;;11.30;;
71570;SDS011;59407;42.682;23.322;2022-10-12T08:54:01;17.58;;;10.68;;
71570;SDS011;59407;42.682;23.322;2022-10-12T08:56:29;19.15;;;11.57;;
71570;SDS011;59407;42.682;23.322;2022-10-12T08:58:55;22.07;;;12.00;;
71570;SDS011;59407;42.682;23.322;2022-10-12T09:01:26;19.42;;;11.63;;
71570;SDS011;59407;42.682;23.322;2022-10-12T09:06:21;22.43;;;12.27;;
71570;SDS011;59407;42.682;23.322;2022-10-12T09:14:03;22.35;;;11.85;;
71570;SDS011;59407;42.682;23.322;2022-10-12T09:16:34;25.90;;;14.57;;
71570;SDS011;59407;42.682;23.322;2022-10-12T09:19:08;21.75;;;12.35;;
71570;SDS011;59407;42.682;23.322;2022-10-12T09:21:46;26.65;;;14.73;;
71570;SDS011;59407;42.682;23.322;2022-10-12T09:24:26;35.40;;;16.30;;
71570;SDS011;59407;42.682;23.322;2022-10-12T09:26:56;24.55;;;13.43;;
71570;SDS011;59407;42.682;23.322;2022-10-12T09:29:28;23.77;;;12.50;;
71570;SDS011;59407;42.682;23.322;2022-10-12T09:32:08;23.40;;;14.10;;
71570;SDS011;59407;42.682;23.322;2022-10-12T09:34:35;26.70;;;15.13;;
71570;SDS011;59407;42.682;23.322;2022-10-12T09:37:01;21.67;;;11.83;;
71570;SDS011;59407;42.682;23.322;2022-10-12T09:39:31;29.55;;;14.20;;
71570;SDS011;59407;42.682;23.322;2022-10-12T09:41:58;23.13;;;11.13;;
71570;SDS011;59407;42.682;23.322;2022-10-12T09:44:37;40.50;;;20.30;;
71570;SDS011;59407;42.682;23.322;2022-10-12T09:47:06;47.30;;;27.25;;
71570;SDS011;59407;42.682;23.322;2022-10-12T09:49:49;27.00;;;15.23;;
71570;SDS011;59407;42.682;23.322;2022-10-12T09:52:18;23.25;;;12.43;;
71570;SDS011;59407;42.682;23.322;2022-10-12T09:54:47;30.20;;;17.88;;
71570;SDS011;59407;42.682;23.322;2022-10-12T09:57:18;30.93;;;16.30;;
71570;SDS011;59407;42.682;23.322;2022-10-12T09:59:45;26.25;;;13.02;;
71570;SDS011;59407;42.682;23.322;2022-10-12T10:02:15;22.25;;;12.35;;
71570;SDS011;59407;42.682;23.322;2022-10-12T10:04:42;19.13;;;11.17;;
71570;SDS011;59407;42.682;23.322;2022-10-12T10:09:43;29.88;;;21.25;;
71570;SDS011;59407;42.682;23.322;2022-10-12T10:12:30;22.52;;;11.65;;
71570;SDS011;59407;42.682;23.322;2022-10-12T10:14:56;16.77;;;9.45;;
71570;SDS011;59407;42.682;23.322;2022-10-12T10:17:23;18.30;;;9.77;;
71570;SDS011;59407;42.682;23.322;2022-10-12T10:19:51;18.52;;;10.38;;
71570;SDS011;59407;42.682;23.322;2022-10-12T10:22:17;17.80;;;11.40;;
71570;SDS011;59407;42.682;23.322;2022-10-12T10:24:48;19.85;;;11.45;;
71570;SDS011;59407;42.682;23.322;2022-10-12T10:30:40;19.77;;;12.63;;
71570;SDS011;59407;42.682;23.322;2022-10-12T10:32:44;17.45;;;10.73;;
71570;SDS011;59407;42.682;23.322;2022-10-12T10:37:35;18.47;;;10.27;;
71570;SDS011;59407;42.682;23.322;2022-10-12T10:40:00;21.33;;;10.80;;
71570;SDS011;59407;42.682;23.322;2022-10-12T10:42:30;20.70;;;10.70;;
71570;SDS011;59407;42.682;23.322;2022-10-12T10:45:00;18.20;;;9.82;;
71570;SDS011;59407;42.682;23.322;2022-10-12T10:47:28;15.63;;;9.27;;
71570;SDS011;59407;42.682;23.322;2022-10-12T10:49:59;18.73;;;9.75;;
71570;SDS011;59407;42.682;23.322;2022-10-12T10:52:27;16.80;;;9.95;;
71570;SDS011;59407;42.682;23.322;2022-10-12T10:57:39;16.52;;;9.00;;
71570;SDS011;59407;42.682;23.322;2022-10-12T11:00:18;16.03;;;9.00;;
71570;SDS011;59407;42.682;23.322;2022-10-12T11:05:23;17.83;;;9.60;;
71570;SDS011;59407;42.682;23.322;2022-10-12T11:07:58;17.63;;;8.80;;
71570;SDS011;59407;42.682;23.322;2022-10-12T11:10:34;16.83;;;8.63;;
71570;SDS011;59407;42.682;23.322;2022-10-12T11:13:31;17.37;;;9.93;;
71570;SDS011;59407;42.682;23.322;2022-10-12T11:16:02;16.63;;;9.93;;
71570;SDS011;59407;42.682;23.322;2022-10-12T11:18:49;16.02;;;9.88;;
71570;SDS011;59407;42.682;23.322;2022-10-12T11:24:15;14.38;;;9.45;;
71570;SDS011;59407;42.682;23.322;2022-10-12T11:29:18;16.60;;;9.05;;
71570;SDS011;59407;42.682;23.322;2022-10-12T11:31:55;16.48;;;9.82;;
71570;SDS011;59407;42.682;23.322;2022-10-12T11:34:24;15.53;;;9.37;;
71570;SDS011;59407;42.682;23.322;2022-10-12T11:36:52;15.45;;;8.93;;
71570;SDS011;59407;42.682;23.322;2022-10-12T11:41:47;17.42;;;9.75;;
71570;SDS011;59407;42.682;23.322;2022-10-12T11:44:23;15.18;;;9.20;;
71570;SDS011;59407;42.682;23.322;2022-10-12T11:49:37;15.60;;;8.63;;
71570;SDS011;59407;42.682;23.322;2022-10-12T11:52:11;18.10;;;9.38;;
71570;SDS011;59407;42.682;23.322;2022-10-12T11:57:09;15.67;;;9.23;;
71570;SDS011;59407;42.682;23.322;2022-10-12T11:59:53;13.77;;;8.60;;
71570;SDS011;59407;42.682;23.322;2022-10-12T12:02:27;12.80;;;8.20;;
71570;SDS011;59407;42.682;23.322;2022-10-12T12:04:54;13.82;;;8.57;;
71570;SDS011;59407;42.682;23.322;2022-10-12T12:13:07;18.13;;;10.35;;
71570;SDS011;59407;42.682;23.322;2022-10-12T12:15:39;14.25;;;8.07;;
71570;SDS011;59407;42.682;23.322;2022-10-12T12:18:13;14.45;;;8.25;;
71570;SDS011;59407;42.682;23.322;2022-10-12T12:23:14;13.88;;;8.10;;
71570;SDS011;59407;42.682;23.322;2022-10-12T12:25:46;14.80;;;8.45;;
71570;SDS011;59407;42.682;23.322;2022-10-12T12:28:21;14.00;;;8.43;;
71570;SDS011;59407;42.682;23.322;2022-10-12T12:31:10;14.85;;;8.80;;
71570;SDS011;59407;42.682;23.322;2022-10-12T12:33:36;16.35;;;9.50;;
71570;SDS011;59407;42.682;23.322;2022-10-12T12:36:09;15.60;;;8.55;;
71570;SDS011;59407;42.682;23.322;2022-10-12T12:41:10;13.73;;;8.50;;
71570;SDS011;59407;42.682;23.322;2022-10-12T12:46:08;16.02;;;8.60;;
71570;SDS011;59407;42.682;23.322;2022-10-12T12:51:03;14.83;;;9.73;;
71570;SDS011;59407;42.682;23.322;2022-10-12T12:53:46;15.48;;;8.65;;
